sensor_id;sensor_type;location;lat;lon;timestamp;P1;durP1;ratioP1;P2;durP2;ratioP2
15655;SDS011;7928;43.614;1.456;2023-11-18T00:01:46;12.30;;;8.40;;
15655;SDS011;7928;43.614;1.456;2023-11-18T00:04:12;11.87;;;7.37;;
15655;SDS011;7928;43.614;1.456;2023-11-18T00:06:41;9.70;;;6.57;;
15655;SDS011;7928;43.614;1.456;2023-11-18T00:09:10;13.50;;;6.93;;
15655;SDS011;7928;43.614;1.456;2023-11-18T00:11:39;11.73;;;6.10;;
15655;SDS011;7928;43.614;1.456;2023-11-18T00:14:07;8.90;;;6.77;;
15655;SDS011;7928;43.614;1.456;2023-11-18T00:16:35;14.97;;;6.43;;
15655;SDS011;7928;43.614;1.456;2023-11-18T00:19:02;11.77;;;6.43;;
15655;SDS011;7928;43.614;1.456;2023-11-18T00:21:30;10.50;;;6.13;;
15655;SDS011;7928;43.614;1.456;2023-11-18T00:23:57;13.67;;;6.70;;
15655;SDS011;7928;43.614;1.456;2023-11-18T00:26:25;8.43;;;5.90;;
15655;SDS011;7928;43.614;1.456;2023-11-18T00:28:52;11.67;;;6.70;;
15655;SDS011;7928;43.614;1.456;2023-11-18T00:31:19;9.33;;;6.77;;
15655;SDS011;7928;43.614;1.456;2023-11-18T00:33:46;10.57;;;6.67;;
15655;SDS011;7928;43.614;1.456;2023-11-18T00:36:13;9.00;;;6.47;;
15655;SDS011;7928;43.614;1.456;2023-11-18T00:38:40;12.83;;;6.33;;
15655;SDS011;7928;43.614;1.456;2023-11-18T00:41:07;11.00;;;6.00;;
15655;SDS011;7928;43.614;1.456;2023-11-18T00:43:36;10.53;;;5.37;;
15655;SDS011;7928;43.614;1.456;2023-11-18T00:46:03;15.10;;;5.73;;
15655;SDS011;7928;43.614;1.456;2023-11-18T00:48:30;7.97;;;4.97;;
15655;SDS011;7928;43.614;1.456;2023-11-18T00:50:57;12.67;;;6.00;;
15655;SDS011;7928;43.614;1.456;2023-11-18T00:53:24;10.73;;;5.57;;
15655;SDS011;7928;43.614;1.456;2023-11-18T00:55:51;10.37;;;6.23;;
15655;SDS011;7928;43.614;1.456;2023-11-18T00:58:18;12.77;;;6.07;;
15655;SDS011;7928;43.614;1.456;2023-11-18T01:00:46;9.90;;;6.13;;
15655;SDS011;7928;43.614;1.456;2023-11-18T01:03:13;10.20;;;6.73;;
15655;SDS011;7928;43.614;1.456;2023-11-18T01:05:40;11.50;;;6.80;;
15655;SDS011;7928;43.614;1.456;2023-11-18T01:08:07;11.97;;;8.50;;
15655;SDS011;7928;43.614;1.456;2023-11-18T01:10:34;12.77;;;8.03;;
15655;SDS011;7928;43.614;1.456;2023-11-18T01:13:01;13.20;;;8.40;;
15655;SDS011;7928;43.614;1.456;2023-11-18T01:15:27;15.33;;;9.23;;
15655;SDS011;7928;43.614;1.456;2023-11-18T01:17:59;16.27;;;8.60;;
15655;SDS011;7928;43.614;1.456;2023-11-18T01:20:25;15.23;;;8.07;;
15655;SDS011;7928;43.614;1.456;2023-11-18T01:22:52;14.03;;;8.80;;
15655;SDS011;7928;43.614;1.456;2023-11-18T01:25:19;13.67;;;8.93;;
15655;SDS011;7928;43.614;1.456;2023-11-18T01:27:46;14.63;;;8.50;;
15655;SDS011;7928;43.614;1.456;2023-11-18T01:30:14;14.73;;;8.73;;
15655;SDS011;7928;43.614;1.456;2023-11-18T01:32:41;14.40;;;9.07;;
15655;SDS011;7928;43.614;1.456;2023-11-18T01:35:09;11.13;;;7.40;;
15655;SDS011;7928;43.614;1.456;2023-11-18T01:37:37;11.60;;;8.03;;
15655;SDS011;7928;43.614;1.456;2023-11-18T01:40:05;10.90;;;7.13;;
15655;SDS011;7928;43.614;1.456;2023-11-18T01:42:33;12.73;;;6.43;;
15655;SDS011;7928;43.614;1.456;2023-11-18T01:45:00;8.57;;;5.67;;
15655;SDS011;7928;43.614;1.456;2023-11-18T01:47:28;9.30;;;5.47;;
15655;SDS011;7928;43.614;1.456;2023-11-18T01:49:57;12.90;;;6.47;;
15655;SDS011;7928;43.614;1.456;2023-11-18T01:52:26;13.40;;;8.20;;
15655;SDS011;7928;43.614;1.456;2023-11-18T01:54:55;17.67;;;8.07;;
15655;SDS011;7928;43.614;1.456;2023-11-18T01:57:22;17.40;;;8.07;;
15655;SDS011;7928;43.614;1.456;2023-11-18T01:59:52;13.97;;;7.90;;
15655;SDS011;7928;43.614;1.456;2023-11-18T02:02:19;9.30;;;6.40;;
15655;SDS011;7928;43.614;1.456;2023-11-18T02:04:47;12.97;;;7.70;;
15655;SDS011;7928;43.614;1.456;2023-11-18T02:07:14;11.33;;;7.90;;
15655;SDS011;7928;43.614;1.456;2023-11-18T02:09:42;12.97;;;7.90;;
15655;SDS011;7928;43.614;1.456;2023-11-18T02:12:15;10.80;;;7.70;;
15655;SDS011;7928;43.614;1.456;2023-11-18T02:14:47;13.50;;;8.50;;
15655;SDS011;7928;43.614;1.456;2023-11-18T02:17:17;13.73;;;7.50;;
15655;SDS011;7928;43.614;1.456;2023-11-18T02:19:48;12.17;;;6.83;;
15655;SDS011;7928;43.614;1.456;2023-11-18T02:22:16;8.97;;;6.93;;
15655;SDS011;7928;43.614;1.456;2023-11-18T02:24:44;10.83;;;8.13;;
15655;SDS011;7928;43.614;1.456;2023-11-18T02:27:13;10.27;;;7.70;;
15655;SDS011;7928;43.614;1.456;2023-11-18T02:29:40;10.00;;;7.77;;
15655;SDS011;7928;43.614;1.456;2023-11-18T02:32:12;12.57;;;8.03;;
15655;SDS011;7928;43.614;1.456;2023-11-18T02:34:44;11.03;;;8.00;;
15655;SDS011;7928;43.614;1.456;2023-11-18T02:37:18;11.07;;;8.10;;
15655;SDS011;7928;43.614;1.456;2023-11-18T02:39:47;11.87;;;8.33;;
15655;SDS011;7928;43.614;1.456;2023-11-18T02:42:20;14.00;;;8.70;;
15655;SDS011;7928;43.614;1.456;2023-11-18T02:44:49;12.67;;;8.20;;
15655;SDS011;7928;43.614;1.456;2023-11-18T02:47:24;13.00;;;8.00;;
15655;SDS011;7928;43.614;1.456;2023-11-18T02:49:53;9.93;;;8.00;;
15655;SDS011;7928;43.614;1.456;2023-11-18T02:52:21;11.20;;;7.47;;
15655;SDS011;7928;43.614;1.456;2023-11-18T02:54:48;12.07;;;7.90;;
15655;SDS011;7928;43.614;1.456;2023-11-18T02:57:15;13.47;;;7.67;;
15655;SDS011;7928;43.614;1.456;2023-11-18T02:59:44;10.87;;;7.77;;
15655;SDS011;7928;43.614;1.456;2023-11-18T03:02:12;12.60;;;7.43;;
15655;SDS011;7928;43.614;1.456;2023-11-18T03:04:40;11.87;;;8.50;;
15655;SDS011;7928;43.614;1.456;2023-11-18T03:07:09;13.30;;;8.17;;
15655;SDS011;7928;43.614;1.456;2023-11-18T03:09:36;11.13;;;8.63;;
15655;SDS011;7928;43.614;1.456;2023-11-18T03:12:05;17.60;;;8.80;;
15655;SDS011;7928;43.614;1.456;2023-11-18T03:14:32;13.00;;;8.87;;
15655;SDS011;7928;43.614;1.456;2023-11-18T03:17:01;13.97;;;7.97;;
15655;SDS011;7928;43.614;1.456;2023-11-18T03:19:31;8.87;;;7.30;;
15655;SDS011;7928;43.614;1.456;2023-11-18T03:21:59;14.40;;;9.27;;
15655;SDS011;7928;43.614;1.456;2023-11-18T03:24:26;10.43;;;7.43;;
15655;SDS011;7928;43.614;1.456;2023-11-18T03:26:54;10.93;;;7.70;;
15655;SDS011;7928;43.614;1.456;2023-11-18T03:29:21;11.77;;;7.77;;
15655;SDS011;7928;43.614;1.456;2023-11-18T03:31:49;8.93;;;7.07;;
15655;SDS011;7928;43.614;1.456;2023-11-18T03:34:18;13.63;;;8.10;;
15655;SDS011;7928;43.614;1.456;2023-11-18T03:36:45;11.70;;;7.80;;
15655;SDS011;7928;43.614;1.456;2023-11-18T03:39:13;13.97;;;8.70;;
15655;SDS011;7928;43.614;1.456;2023-11-18T03:41:40;11.60;;;6.87;;
15655;SDS011;7928;43.614;1.456;2023-11-18T03:44:09;13.87;;;7.03;;
15655;SDS011;7928;43.614;1.456;2023-11-18T03:46:36;11.37;;;6.53;;
15655;SDS011;7928;43.614;1.456;2023-11-18T03:49:03;14.67;;;8.07;;
15655;SDS011;7928;43.614;1.456;2023-11-18T03:51:31;11.60;;;7.27;;
15655;SDS011;7928;43.614;1.456;2023-11-18T03:53:58;9.90;;;6.80;;
15655;SDS011;7928;43.614;1.456;2023-11-18T03:56:25;12.10;;;6.83;;
15655;SDS011;7928;43.614;1.456;2023-11-18T03:58:53;10.30;;;7.23;;
15655;SDS011;7928;43.614;1.456;2023-11-18T04:01:20;14.03;;;7.17;;
15655;SDS011;7928;43.614;1.456;2023-11-18T04:03:48;13.83;;;7.40;;
15655;SDS011;7928;43.614;1.456;2023-11-18T04:06:15;10.43;;;6.27;;
15655;SDS011;7928;43.614;1.456;2023-11-18T04:08:44;10.53;;;7.30;;
15655;SDS011;7928;43.614;1.456;2023-11-18T04:11:11;11.27;;;7.50;;
15655;SDS011;7928;43.614;1.456;2023-11-18T04:13:39;8.77;;;6.93;;
15655;SDS011;7928;43.614;1.456;2023-11-18T04:16:09;11.57;;;6.90;;
15655;SDS011;7928;43.614;1.456;2023-11-18T04:18:38;10.53;;;7.63;;
15655;SDS011;7928;43.614;1.456;2023-11-18T04:21:06;11.73;;;7.60;;
15655;SDS011;7928;43.614;1.456;2023-11-18T04:23:33;11.33;;;6.73;;
15655;SDS011;7928;43.614;1.456;2023-11-18T04:26:02;11.67;;;7.00;;
15655;SDS011;7928;43.614;1.456;2023-11-18T04:28:30;9.73;;;7.00;;
15655;SDS011;7928;43.614;1.456;2023-11-18T04:30:56;11.27;;;7.27;;
15655;SDS011;7928;43.614;1.456;2023-11-18T04:33:23;8.67;;;7.03;;
15655;SDS011;7928;43.614;1.456;2023-11-18T04:35:50;11.93;;;7.63;;
15655;SDS011;7928;43.614;1.456;2023-11-18T04:38:17;14.43;;;7.10;;
15655;SDS011;7928;43.614;1.456;2023-11-18T04:40:45;9.33;;;7.13;;
15655;SDS011;7928;43.614;1.456;2023-11-18T04:43:13;12.30;;;7.80;;
15655;SDS011;7928;43.614;1.456;2023-11-18T04:45:40;9.87;;;7.80;;
15655;SDS011;7928;43.614;1.456;2023-11-18T04:48:08;12.00;;;7.73;;
15655;SDS011;7928;43.614;1.456;2023-11-18T04:50:35;11.03;;;7.33;;
15655;SDS011;7928;43.614;1.456;2023-11-18T04:53:02;10.03;;;7.20;;
15655;SDS011;7928;43.614;1.456;2023-11-18T04:55:29;9.80;;;7.37;;
15655;SDS011;7928;43.614;1.456;2023-11-18T04:57:56;9.73;;;6.80;;
15655;SDS011;7928;43.614;1.456;2023-11-18T05:00:24;10.07;;;7.80;;
15655;SDS011;7928;43.614;1.456;2023-11-18T05:02:52;10.90;;;7.77;;
15655;SDS011;7928;43.614;1.456;2023-11-18T05:05:20;10.83;;;7.23;;
15655;SDS011;7928;43.614;1.456;2023-11-18T05:07:47;12.07;;;6.97;;
15655;SDS011;7928;43.614;1.456;2023-11-18T05:10:14;8.70;;;7.40;;
15655;SDS011;7928;43.614;1.456;2023-11-18T05:12:41;10.83;;;7.57;;
15655;SDS011;7928;43.614;1.456;2023-11-18T05:15:09;11.37;;;7.67;;
15655;SDS011;7928;43.614;1.456;2023-11-18T05:17:39;12.47;;;7.27;;
15655;SDS011;7928;43.614;1.456;2023-11-18T05:20:06;12.47;;;7.30;;
15655;SDS011;7928;43.614;1.456;2023-11-18T05:22:34;9.40;;;7.40;;
15655;SDS011;7928;43.614;1.456;2023-11-18T05:25:01;11.33;;;7.40;;
15655;SDS011;7928;43.614;1.456;2023-11-18T05:27:29;10.30;;;7.57;;
15655;SDS011;7928;43.614;1.456;2023-11-18T05:29:56;11.63;;;7.63;;
15655;SDS011;7928;43.614;1.456;2023-11-18T05:32:26;11.90;;;8.90;;
15655;SDS011;7928;43.614;1.456;2023-11-18T05:34:54;15.00;;;7.57;;
15655;SDS011;7928;43.614;1.456;2023-11-18T05:37:23;10.63;;;7.33;;
15655;SDS011;7928;43.614;1.456;2023-11-18T05:39:50;10.03;;;7.17;;
15655;SDS011;7928;43.614;1.456;2023-11-18T05:42:24;10.37;;;7.37;;
15655;SDS011;7928;43.614;1.456;2023-11-18T05:44:51;12.10;;;7.30;;
15655;SDS011;7928;43.614;1.456;2023-11-18T05:47:24;10.90;;;7.93;;
15655;SDS011;7928;43.614;1.456;2023-11-18T05:49:52;10.47;;;7.30;;
15655;SDS011;7928;43.614;1.456;2023-11-18T05:52:20;8.27;;;7.17;;
15655;SDS011;7928;43.614;1.456;2023-11-18T05:54:48;9.83;;;7.43;;
15655;SDS011;7928;43.614;1.456;2023-11-18T05:57:15;9.03;;;6.53;;
15655;SDS011;7928;43.614;1.456;2023-11-18T05:59:42;9.90;;;6.40;;
15655;SDS011;7928;43.614;1.456;2023-11-18T06:02:09;12.43;;;7.07;;
15655;SDS011;7928;43.614;1.456;2023-11-18T06:04:38;11.57;;;6.63;;
15655;SDS011;7928;43.614;1.456;2023-11-18T06:07:07;10.33;;;6.73;;
15655;SDS011;7928;43.614;1.456;2023-11-18T06:09:35;11.33;;;6.73;;
15655;SDS011;7928;43.614;1.456;2023-11-18T06:12:02;10.30;;;6.73;;
15655;SDS011;7928;43.614;1.456;2023-11-18T06:14:34;10.70;;;6.53;;
15655;SDS011;7928;43.614;1.456;2023-11-18T06:17:01;9.73;;;7.00;;
15655;SDS011;7928;43.614;1.456;2023-11-18T06:19:28;12.37;;;7.17;;
15655;SDS011;7928;43.614;1.456;2023-11-18T06:21:54;10.87;;;6.90;;
15655;SDS011;7928;43.614;1.456;2023-11-18T06:24:21;9.87;;;6.37;;
15655;SDS011;7928;43.614;1.456;2023-11-18T06:26:50;9.17;;;7.13;;
15655;SDS011;7928;43.614;1.456;2023-11-18T06:29:17;11.87;;;6.87;;
15655;SDS011;7928;43.614;1.456;2023-11-18T06:31:44;9.00;;;6.63;;
15655;SDS011;7928;43.614;1.456;2023-11-18T06:34:10;8.87;;;6.10;;
15655;SDS011;7928;43.614;1.456;2023-11-18T06:36:37;8.57;;;5.53;;
15655;SDS011;7928;43.614;1.456;2023-11-18T06:39:05;11.17;;;6.80;;
15655;SDS011;7928;43.614;1.456;2023-11-18T06:41:33;12.10;;;7.30;;
15655;SDS011;7928;43.614;1.456;2023-11-18T06:44:04;7.03;;;5.93;;
15655;SDS011;7928;43.614;1.456;2023-11-18T06:46:37;10.10;;;7.00;;
15655;SDS011;7928;43.614;1.456;2023-11-18T06:49:05;8.50;;;5.97;;
15655;SDS011;7928;43.614;1.456;2023-11-18T06:51:33;11.43;;;6.80;;
15655;SDS011;7928;43.614;1.456;2023-11-18T06:54:03;10.90;;;6.67;;
15655;SDS011;7928;43.614;1.456;2023-11-18T06:56:34;7.50;;;5.20;;
15655;SDS011;7928;43.614;1.456;2023-11-18T06:59:02;12.90;;;6.13;;
15655;SDS011;7928;43.614;1.456;2023-11-18T07:01:32;16.37;;;5.87;;
15655;SDS011;7928;43.614;1.456;2023-11-18T07:03:58;8.83;;;5.03;;
15655;SDS011;7928;43.614;1.456;2023-11-18T07:06:25;7.93;;;4.33;;
15655;SDS011;7928;43.614;1.456;2023-11-18T07:08:53;6.93;;;4.27;;
15655;SDS011;7928;43.614;1.456;2023-11-18T07:11:21;7.53;;;4.70;;
15655;SDS011;7928;43.614;1.456;2023-11-18T07:13:48;7.27;;;5.40;;
15655;SDS011;7928;43.614;1.456;2023-11-18T07:16:22;8.77;;;5.10;;
15655;SDS011;7928;43.614;1.456;2023-11-18T07:18:49;9.37;;;5.17;;
15655;SDS011;7928;43.614;1.456;2023-11-18T07:21:17;6.47;;;4.87;;
15655;SDS011;7928;43.614;1.456;2023-11-18T07:23:44;10.17;;;4.67;;
15655;SDS011;7928;43.614;1.456;2023-11-18T07:26:11;8.93;;;5.30;;
15655;SDS011;7928;43.614;1.456;2023-11-18T07:28:39;9.23;;;5.03;;
15655;SDS011;7928;43.614;1.456;2023-11-18T07:31:05;8.27;;;4.93;;
15655;SDS011;7928;43.614;1.456;2023-11-18T07:33:35;7.00;;;4.77;;
15655;SDS011;7928;43.614;1.456;2023-11-18T07:36:02;7.07;;;5.40;;
15655;SDS011;7928;43.614;1.456;2023-11-18T07:38:31;8.30;;;5.17;;
15655;SDS011;7928;43.614;1.456;2023-11-18T07:40:59;9.37;;;5.47;;
15655;SDS011;7928;43.614;1.456;2023-11-18T07:43:28;6.93;;;5.17;;
15655;SDS011;7928;43.614;1.456;2023-11-18T07:45:55;9.17;;;5.07;;
15655;SDS011;7928;43.614;1.456;2023-11-18T07:48:22;8.37;;;5.27;;
15655;SDS011;7928;43.614;1.456;2023-11-18T07:50:50;6.17;;;4.63;;
15655;SDS011;7928;43.614;1.456;2023-11-18T07:53:17;5.73;;;5.00;;
15655;SDS011;7928;43.614;1.456;2023-11-18T07:55:44;8.20;;;5.03;;
15655;SDS011;7928;43.614;1.456;2023-11-18T07:58:12;8.13;;;4.93;;
15655;SDS011;7928;43.614;1.456;2023-11-18T08:00:40;8.97;;;5.37;;
15655;SDS011;7928;43.614;1.456;2023-11-18T08:03:08;6.17;;;4.80;;
15655;SDS011;7928;43.614;1.456;2023-11-18T08:05:36;7.90;;;5.50;;
15655;SDS011;7928;43.614;1.456;2023-11-18T08:08:06;8.87;;;5.40;;
15655;SDS011;7928;43.614;1.456;2023-11-18T08:10:33;9.23;;;5.03;;
15655;SDS011;7928;43.614;1.456;2023-11-18T08:13:02;8.40;;;5.23;;
15655;SDS011;7928;43.614;1.456;2023-11-18T08:15:30;7.57;;;5.10;;
15655;SDS011;7928;43.614;1.456;2023-11-18T08:17:57;14.33;;;5.43;;
15655;SDS011;7928;43.614;1.456;2023-11-18T08:20:24;7.13;;;4.77;;
15655;SDS011;7928;43.614;1.456;2023-11-18T08:22:52;8.03;;;5.10;;
15655;SDS011;7928;43.614;1.456;2023-11-18T08:25:21;7.97;;;5.17;;
15655;SDS011;7928;43.614;1.456;2023-11-18T08:27:48;13.13;;;5.23;;
15655;SDS011;7928;43.614;1.456;2023-11-18T08:30:15;6.77;;;4.93;;
15655;SDS011;7928;43.614;1.456;2023-11-18T08:32:43;8.37;;;4.80;;
15655;SDS011;7928;43.614;1.456;2023-11-18T08:35:11;7.87;;;5.20;;
15655;SDS011;7928;43.614;1.456;2023-11-18T08:37:39;8.80;;;5.30;;
15655;SDS011;7928;43.614;1.456;2023-11-18T08:40:07;9.97;;;5.80;;
15655;SDS011;7928;43.614;1.456;2023-11-18T08:42:41;7.27;;;6.23;;
15655;SDS011;7928;43.614;1.456;2023-11-18T08:45:13;9.10;;;6.33;;
15655;SDS011;7928;43.614;1.456;2023-11-18T08:47:42;10.33;;;6.63;;
15655;SDS011;7928;43.614;1.456;2023-11-18T08:50:09;12.20;;;7.00;;
15655;SDS011;7928;43.614;1.456;2023-11-18T08:52:38;8.20;;;5.70;;
15655;SDS011;7928;43.614;1.456;2023-11-18T08:55:09;8.70;;;5.67;;
15655;SDS011;7928;43.614;1.456;2023-11-18T08:57:44;6.90;;;5.17;;
15655;SDS011;7928;43.614;1.456;2023-11-18T09:00:17;9.77;;;6.33;;
15655;SDS011;7928;43.614;1.456;2023-11-18T09:02:58;7.30;;;5.93;;
15655;SDS011;7928;43.614;1.456;2023-11-18T09:05:26;10.10;;;6.10;;
15655;SDS011;7928;43.614;1.456;2023-11-18T09:07:56;9.40;;;6.00;;
15655;SDS011;7928;43.614;1.456;2023-11-18T09:10:25;7.37;;;5.60;;
15655;SDS011;7928;43.614;1.456;2023-11-18T09:12:54;13.57;;;5.63;;
15655;SDS011;7928;43.614;1.456;2023-11-18T09:15:21;8.80;;;5.70;;
15655;SDS011;7928;43.614;1.456;2023-11-18T09:17:48;10.20;;;5.43;;
15655;SDS011;7928;43.614;1.456;2023-11-18T09:20:15;10.50;;;5.60;;
15655;SDS011;7928;43.614;1.456;2023-11-18T09:22:45;12.40;;;8.03;;
15655;SDS011;7928;43.614;1.456;2023-11-18T09:25:13;16.20;;;8.33;;
15655;SDS011;7928;43.614;1.456;2023-11-18T09:27:41;10.40;;;6.83;;
15655;SDS011;7928;43.614;1.456;2023-11-18T09:30:09;10.73;;;7.00;;
15655;SDS011;7928;43.614;1.456;2023-11-18T09:32:39;9.20;;;6.07;;
15655;SDS011;7928;43.614;1.456;2023-11-18T09:35:07;7.67;;;5.07;;
15655;SDS011;7928;43.614;1.456;2023-11-18T09:37:37;6.17;;;4.30;;
15655;SDS011;7928;43.614;1.456;2023-11-18T09:40:06;9.67;;;4.60;;
15655;SDS011;7928;43.614;1.456;2023-11-18T09:42:37;5.43;;;3.70;;
15655;SDS011;7928;43.614;1.456;2023-11-18T09:45:05;4.57;;;3.33;;
15655;SDS011;7928;43.614;1.456;2023-11-18T09:47:42;5.40;;;3.20;;
15655;SDS011;7928;43.614;1.456;2023-11-18T09:50:12;5.43;;;3.10;;
15655;SDS011;7928;43.614;1.456;2023-11-18T09:52:47;4.43;;;2.70;;
15655;SDS011;7928;43.614;1.456;2023-11-18T09:55:19;5.80;;;3.60;;
15655;SDS011;7928;43.614;1.456;2023-11-18T09:57:54;11.80;;;8.30;;
15655;SDS011;7928;43.614;1.456;2023-11-18T10:00:29;13.43;;;11.83;;
15655;SDS011;7928;43.614;1.456;2023-11-18T10:03:00;14.03;;;12.53;;
15655;SDS011;7928;43.614;1.456;2023-11-18T10:05:27;13.40;;;9.25;;
15655;SDS011;7928;43.614;1.456;2023-11-18T10:07:55;6.63;;;4.18;;
15655;SDS011;7928;43.614;1.456;2023-11-18T10:10:23;5.65;;;2.63;;
15655;SDS011;7928;43.614;1.456;2023-11-18T10:12:56;5.63;;;2.70;;
15655;SDS011;7928;43.614;1.456;2023-11-18T10:15:24;3.55;;;1.95;;
15655;SDS011;7928;43.614;1.456;2023-11-18T10:17:52;3.25;;;1.80;;
15655;SDS011;7928;43.614;1.456;2023-11-18T10:20:42;2.88;;;1.80;;
15655;SDS011;7928;43.614;1.456;2023-11-18T10:23:11;2.90;;;1.50;;
15655;SDS011;7928;43.614;1.456;2023-11-18T10:25:45;2.25;;;1.55;;
15655;SDS011;7928;43.614;1.456;2023-11-18T10:28:22;2.65;;;1.60;;
15655;SDS011;7928;43.614;1.456;2023-11-18T10:30:52;4.13;;;1.55;;
15655;SDS011;7928;43.614;1.456;2023-11-18T10:33:19;4.35;;;1.30;;
15655;SDS011;7928;43.614;1.456;2023-11-18T10:35:50;1.92;;;1.20;;
15655;SDS011;7928;43.614;1.456;2023-11-18T10:38:17;3.75;;;1.40;;
15655;SDS011;7928;43.614;1.456;2023-11-18T10:40:44;3.88;;;1.33;;
15655;SDS011;7928;43.614;1.456;2023-11-18T10:43:12;3.00;;;1.23;;
15655;SDS011;7928;43.614;1.456;2023-11-18T10:45:42;2.65;;;1.83;;
15655;SDS011;7928;43.614;1.456;2023-11-18T10:48:12;1.98;;;1.15;;
15655;SDS011;7928;43.614;1.456;2023-11-18T10:50:41;2.45;;;1.50;;
15655;SDS011;7928;43.614;1.456;2023-11-18T10:53:13;1.98;;;0.68;;
15655;SDS011;7928;43.614;1.456;2023-11-18T10:55:41;1.52;;;0.77;;
15655;SDS011;7928;43.614;1.456;2023-11-18T10:58:09;2.80;;;1.33;;
15655;SDS011;7928;43.614;1.456;2023-11-18T11:00:46;1.40;;;1.08;;
15655;SDS011;7928;43.614;1.456;2023-11-18T11:03:18;3.60;;;1.00;;
15655;SDS011;7928;43.614;1.456;2023-11-18T11:05:48;1.63;;;0.93;;
15655;SDS011;7928;43.614;1.456;2023-11-18T11:08:17;2.70;;;1.23;;
15655;SDS011;7928;43.614;1.456;2023-11-18T11:10:45;2.15;;;1.10;;
15655;SDS011;7928;43.614;1.456;2023-11-18T11:13:14;2.22;;;1.25;;
15655;SDS011;7928;43.614;1.456;2023-11-18T11:15:44;2.67;;;1.33;;
15655;SDS011;7928;43.614;1.456;2023-11-18T11:18:20;2.05;;;1.30;;
15655;SDS011;7928;43.614;1.456;2023-11-18T11:20:54;3.55;;;1.45;;
15655;SDS011;7928;43.614;1.456;2023-11-18T11:23:36;1.70;;;1.23;;
15655;SDS011;7928;43.614;1.456;2023-11-18T11:26:18;3.30;;;1.58;;
15655;SDS011;7928;43.614;1.456;2023-11-18T11:28:58;2.58;;;1.40;;
15655;SDS011;7928;43.614;1.456;2023-11-18T11:31:35;3.50;;;1.60;;
15655;SDS011;7928;43.614;1.456;2023-11-18T11:34:05;2.38;;;1.13;;
15655;SDS011;7928;43.614;1.456;2023-11-18T11:36:37;1.45;;;1.10;;
15655;SDS011;7928;43.614;1.456;2023-11-18T11:39:09;1.58;;;1.10;;
15655;SDS011;7928;43.614;1.456;2023-11-18T11:41:42;3.10;;;1.55;;
15655;SDS011;7928;43.614;1.456;2023-11-18T11:44:11;1.95;;;1.33;;
15655;SDS011;7928;43.614;1.456;2023-11-18T11:46:39;4.25;;;1.50;;
15655;SDS011;7928;43.614;1.456;2023-11-18T11:49:08;2.47;;;1.55;;
15655;SDS011;7928;43.614;1.456;2023-11-18T11:51:46;3.70;;;1.50;;
15655;SDS011;7928;43.614;1.456;2023-11-18T11:54:19;3.97;;;1.92;;
15655;SDS011;7928;43.614;1.456;2023-11-18T11:56:49;4.13;;;1.80;;
15655;SDS011;7928;43.614;1.456;2023-11-18T12:02:22;5.90;;;3.20;;
15655;SDS011;7928;43.614;1.456;2023-11-18T12:04:54;2.40;;;1.70;;
15655;SDS011;7928;43.614;1.456;2023-11-18T12:07:24;4.25;;;2.40;;
15655;SDS011;7928;43.614;1.456;2023-11-18T12:09:56;4.90;;;2.30;;
15655;SDS011;7928;43.614;1.456;2023-11-18T12:12:25;3.20;;;2.38;;
15655;SDS011;7928;43.614;1.456;2023-11-18T12:14:53;3.30;;;1.70;;
15655;SDS011;7928;43.614;1.456;2023-11-18T12:17:23;3.63;;;2.22;;
15655;SDS011;7928;43.614;1.456;2023-11-18T12:19:57;3.17;;;1.50;;
15655;SDS011;7928;43.614;1.456;2023-11-18T12:22:24;3.20;;;1.50;;
15655;SDS011;7928;43.614;1.456;2023-11-18T12:28:00;2.58;;;1.63;;
15655;SDS011;7928;43.614;1.456;2023-11-18T12:30:43;2.97;;;1.38;;
15655;SDS011;7928;43.614;1.456;2023-11-18T12:48:39;2.95;;;1.65;;
15655;SDS011;7928;43.614;1.456;2023-11-18T12:51:11;1.83;;;1.23;;
15655;SDS011;7928;43.614;1.456;2023-11-18T12:53:44;3.92;;;1.60;;
15655;SDS011;7928;43.614;1.456;2023-11-18T12:56:18;2.75;;;1.50;;
15655;SDS011;7928;43.614;1.456;2023-11-18T12:58:49;2.40;;;1.20;;
15655;SDS011;7928;43.614;1.456;2023-11-18T13:01:17;3.55;;;1.45;;
15655;SDS011;7928;43.614;1.456;2023-11-18T13:03:44;4.95;;;1.35;;
15655;SDS011;7928;43.614;1.456;2023-11-18T13:06:12;2.22;;;1.30;;
15655;SDS011;7928;43.614;1.456;2023-11-18T13:08:39;2.85;;;1.40;;
15655;SDS011;7928;43.614;1.456;2023-11-18T13:11:06;2.20;;;1.30;;
15655;SDS011;7928;43.614;1.456;2023-11-18T13:13:40;4.53;;;1.70;;
15655;SDS011;7928;43.614;1.456;2023-11-18T13:16:09;2.33;;;1.40;;
15655;SDS011;7928;43.614;1.456;2023-11-18T13:18:43;2.60;;;1.63;;
15655;SDS011;7928;43.614;1.456;2023-11-18T13:21:15;2.55;;;1.42;;
15655;SDS011;7928;43.614;1.456;2023-11-18T13:23:46;6.22;;;1.45;;
15655;SDS011;7928;43.614;1.456;2023-11-18T13:26:15;4.68;;;1.60;;
15655;SDS011;7928;43.614;1.456;2023-11-18T13:28:45;3.40;;;1.42;;
15655;SDS011;7928;43.614;1.456;2023-11-18T13:31:14;1.92;;;1.27;;
15655;SDS011;7928;43.614;1.456;2023-11-18T13:33:41;4.32;;;1.98;;
15655;SDS011;7928;43.614;1.456;2023-11-18T13:36:09;2.58;;;1.50;;
15655;SDS011;7928;43.614;1.456;2023-11-18T13:38:37;2.65;;;1.45;;
15655;SDS011;7928;43.614;1.456;2023-11-18T13:41:04;3.67;;;1.50;;
15655;SDS011;7928;43.614;1.456;2023-11-18T13:43:43;4.63;;;1.70;;
15655;SDS011;7928;43.614;1.456;2023-11-18T13:46:12;2.55;;;1.50;;
15655;SDS011;7928;43.614;1.456;2023-11-18T13:48:41;4.13;;;1.70;;
15655;SDS011;7928;43.614;1.456;2023-11-18T13:51:08;3.15;;;1.60;;
15655;SDS011;7928;43.614;1.456;2023-11-18T13:53:39;5.07;;;1.60;;
15655;SDS011;7928;43.614;1.456;2023-11-18T13:56:08;3.10;;;1.48;;
15655;SDS011;7928;43.614;1.456;2023-11-18T13:58:35;2.40;;;1.50;;
15655;SDS011;7928;43.614;1.456;2023-11-18T14:01:04;3.22;;;1.77;;
15655;SDS011;7928;43.614;1.456;2023-11-18T14:03:33;2.13;;;1.50;;
15655;SDS011;7928;43.614;1.456;2023-11-18T14:06:04;4.10;;;1.88;;
15655;SDS011;7928;43.614;1.456;2023-11-18T14:08:32;2.75;;;1.40;;
15655;SDS011;7928;43.614;1.456;2023-11-18T14:11:00;3.17;;;1.52;;
15655;SDS011;7928;43.614;1.456;2023-11-18T14:13:27;3.00;;;1.40;;
15655;SDS011;7928;43.614;1.456;2023-11-18T14:15:56;3.60;;;1.95;;
15655;SDS011;7928;43.614;1.456;2023-11-18T14:18:24;2.85;;;2.15;;
15655;SDS011;7928;43.614;1.456;2023-11-18T14:20:52;6.18;;;2.00;;
15655;SDS011;7928;43.614;1.456;2023-11-18T14:23:21;4.32;;;1.67;;
15655;SDS011;7928;43.614;1.456;2023-11-18T14:25:48;1.85;;;1.20;;
15655;SDS011;7928;43.614;1.456;2023-11-18T14:28:15;3.53;;;1.55;;
15655;SDS011;7928;43.614;1.456;2023-11-18T14:30:42;3.42;;;1.55;;
15655;SDS011;7928;43.614;1.456;2023-11-18T14:33:09;2.42;;;1.48;;
15655;SDS011;7928;43.614;1.456;2023-11-18T14:35:36;2.88;;;1.55;;
15655;SDS011;7928;43.614;1.456;2023-11-18T14:38:05;3.60;;;1.60;;
15655;SDS011;7928;43.614;1.456;2023-11-18T14:40:34;3.35;;;1.80;;
15655;SDS011;7928;43.614;1.456;2023-11-18T14:43:01;2.42;;;1.52;;
15655;SDS011;7928;43.614;1.456;2023-11-18T14:45:29;5.25;;;1.95;;
15655;SDS011;7928;43.614;1.456;2023-11-18T14:47:57;3.10;;;1.83;;
15655;SDS011;7928;43.614;1.456;2023-11-18T14:50:24;3.42;;;1.67;;
15655;SDS011;7928;43.614;1.456;2023-11-18T14:52:52;4.68;;;1.70;;
15655;SDS011;7928;43.614;1.456;2023-11-18T14:55:24;1.98;;;1.60;;
15655;SDS011;7928;43.614;1.456;2023-11-18T14:57:53;3.70;;;2.42;;
15655;SDS011;7928;43.614;1.456;2023-11-18T15:00:20;3.45;;;2.15;;
15655;SDS011;7928;43.614;1.456;2023-11-18T15:02:50;3.28;;;1.80;;
15655;SDS011;7928;43.614;1.456;2023-11-18T15:05:19;2.85;;;2.05;;
15655;SDS011;7928;43.614;1.456;2023-11-18T15:07:48;2.78;;;2.03;;
15655;SDS011;7928;43.614;1.456;2023-11-18T15:10:16;4.45;;;2.25;;
15655;SDS011;7928;43.614;1.456;2023-11-18T15:12:46;4.45;;;1.83;;
15655;SDS011;7928;43.614;1.456;2023-11-18T15:15:15;5.80;;;1.77;;
15655;SDS011;7928;43.614;1.456;2023-11-18T15:17:44;3.80;;;2.30;;
15655;SDS011;7928;43.614;1.456;2023-11-18T15:20:13;4.03;;;1.90;;
15655;SDS011;7928;43.614;1.456;2023-11-18T15:22:42;4.18;;;1.80;;
15655;SDS011;7928;43.614;1.456;2023-11-18T15:25:09;7.50;;;2.25;;
15655;SDS011;7928;43.614;1.456;2023-11-18T15:27:37;5.63;;;2.83;;